Phoenixville, PA (19460)

6:35 PM EST on January 24, 2017 (GMT -0500)
West End, Phoenixville | | Change Station
Active Advisory: Small Craft Advisory

Elev 213 ft 40.13 °N, 75.53 °W | Updated 10 minutes ago

Overcast
Overcast
40.0 °F
Feels Like 37 °F
N
4.0
Wind Variable Wind from WNW
Gusts 12.0 mph

Today
High -- | Low -- °F
--% Chance of Precip.
Yesterday
High -- | Low -- °F
Precip. -- in
Pressure 29.49 in
Visibility 10.0 miles
Clouds Few 3500 ft
Mostly Cloudy 6000 ft
Overcast 7500 ft
Windchill 37 °F
Dew Point 34 °F
Humidity 78%
Rainfall 0.09 in
Snow Depth Not available.
7:17 AM 5:11 PM
Waning Crescent, 9% visible
METAR KPTW 242254Z AUTO 30013G20KT 10SM FEW035 BKN060 OVC075 04/M01 A2949 RMK AO2 SLP987 T00391006
Pressure 29.49 in
Visibility 10.0 miles
Clouds Few 3500 ft
Mostly Cloudy 6000 ft
Overcast 7500 ft
Windchill 37 °F
Dew Point 34 °F
Humidity 78%
Rainfall 0.09 in
Snow Depth Not available.
7:17 AM 5:11 PM
Waning Crescent, 9% visible
METAR KPTW 242254Z AUTO 30013G20KT 10SM FEW035 BKN060 OVC075 04/M01 A2949 RMK AO2 SLP987 T00391006

Get Your Daily Forecast Email!

Thanks for signing up!

Be on the lookout for a verification email in your inbox.

You'll start receiving the daily forecast at 8 AM.

×

10-Day Weather Forecast

Almanac

Astronomy

Jan. 24, 2017 Rise Set
Actual Time
Civil Twilight
Nautical Twilight
Astronomical Twilight
Moon
Length of Visible Light
Length of Day
Tomorrow will be .
, % of the Moon is Illuminated

Today's Extremes

State Highs State Lows

Community

WunderPhotos

Upload Photos

1,962,540 photos uploaded!

WunderBlog® & News

Nearby

Air Quality

  Air Quality AQ Index Pollutant
Not available.

Snow Depth

Station Depth Elevation

Earthquake Activity

City Distance Mag. Time & Date
Minimum magnitude displayed is 2.5.

Coastal Water Temperatures

Place Temperature

Stations

Nearby Weather Stations

Station Location Temp. Windchill Dew Point Humidity Wind Precip. Elev Updated Type
                   

Watches & Warnings

Small Craft Advisory
Issued: 2:51 PM EST Jan. 24, 2017 – National Weather Service

... Small Craft Advisory now in effect until 6 am EST Wednesday...

* winds... northwest 10 to 20 kt with gusts up to 30 kt.

* Seas... 1 to 3 feet.

* Location... upper Delaware Bay.

Precautionary/preparedness actions...

A Small Craft Advisory means that wind speeds of 25 to 33 knots
are expected to produce hazardous wave conditions to small craft.
Inexperienced mariners... especially those operating smaller
vessels should avoid navigating in these conditions.